Time;durP1;ratioP1;P1;durP2;ratioP2;P2;SDS_P1;SDS_P2;PMS_P1;PMS_P2;Temp;Humidity;BMP_temperature;BMP_pressure;BME280_temperature;BME280_humidity;BME280_pressure;Samples;Min_cycle;Max_cycle;Signal;HPM_P1;HPM_P2
2022/01/10 00:00:54;;;;;;;6.25;5.13;;;22.70;26.50;;;;;;5046051;28;20053;-64
2022/01/10 00:03:24;;;;;;;8.15;5.25;;;22.70;26.60;;;;;;5045503;28;20052;-63
2022/01/10 00:05:51;;;;;;;5.60;5.00;;;22.70;26.60;;;;;;5045779;28;20111;-64
2022/01/10 00:08:18;;;;;;;5.55;4.85;;;22.70;26.60;;;;;;5046425;28;20118;-63
2022/01/10 00:10:46;;;;;;;6.35;5.05;;;22.70;26.60;;;;;;5045463;28;20143;-63
2022/01/10 00:13:13;;;;;;;5.43;4.88;;;22.70;26.60;;;;;;5044681;28;20053;-64
2022/01/10 00:15:41;;;;;;;5.22;4.72;;;22.70;26.60;;;;;;5044027;28;20049;-64
2022/01/10 00:18:08;;;;;;;4.80;4.30;;;22.70;26.60;;;;;;5045333;28;20056;-64
2022/01/10 00:20:35;;;;;;;5.15;4.65;;;22.70;26.60;;;;;;5027400;28;20419;-64
2022/01/10 00:23:03;;;;;;;5.30;4.80;;;22.70;26.60;;;;;;5045649;28;20083;-64
2022/01/10 00:25:30;;;;;;;5.47;4.45;;;22.70;26.70;;;;;;5045541;28;20037;-63
2022/01/10 00:27:57;;;;;;;4.95;4.25;;;22.70;26.70;;;;;;5045435;28;20052;-64
2022/01/10 00:30:26;;;;;;;5.00;4.47;;;22.70;26.70;;;;;;5045425;28;20099;-63
2022/01/10 00:32:54;;;;;;;5.88;5.05;;;22.70;26.70;;;;;;5045027;28;20158;-63
2022/01/10 00:35:21;;;;;;;5.10;4.50;;;22.70;26.70;;;;;;5044098;28;20053;-63
2022/01/10 00:37:49;;;;;;;6.07;4.90;;;22.70;26.70;;;;;;5044648;28;20516;-64
2022/01/10 00:40:17;;;;;;;5.18;4.57;;;22.70;26.70;;;;;;5045191;28;20049;-63
2022/01/10 00:42:53;;;;;;;5.10;4.60;;;22.70;26.70;;;;;;5043740;28;20055;-64
2022/01/10 00:45:26;;;;;;;6.55;4.97;;;22.60;26.70;;;;;;5043108;28;20099;-64
2022/01/10 00:47:56;;;;;;;5.82;4.88;;;22.60;26.70;;;;;;5045321;28;20045;-64
2022/01/10 00:50:24;;;;;;;5.82;4.55;;;22.60;26.70;;;;;;5045285;28;20102;-63
2022/01/10 00:52:52;;;;;;;5.30;4.70;;;22.60;26.70;;;;;;5043866;28;20055;-64
2022/01/10 00:55:20;;;;;;;4.95;4.38;;;22.60;26.70;;;;;;5045267;28;20049;-64
2022/01/10 00:57:47;;;;;;;5.15;4.57;;;22.60;26.70;;;;;;5044963;28;20049;-64
2022/01/10 01:00:16;;;;;;;5.95;4.80;;;22.60;26.70;;;;;;5045147;28;20098;-64
2022/01/10 01:02:43;;;;;;;6.43;5.07;;;22.60;26.70;;;;;;5044804;28;20056;-63
2022/01/10 01:05:13;;;;;;;5.07;4.25;;;22.60;26.70;;;;;;5044961;28;20048;-64
2022/01/10 01:07:41;;;;;;;4.93;4.43;;;22.60;26.70;;;;;;5044933;28;20610;-63
2022/01/10 01:13:11;;;;;;;5.85;4.60;;;22.60;26.80;;;;;;5045004;28;20095;-64
2022/01/10 01:15:57;;;;;;;5.93;4.65;;;22.60;26.80;;;;;;5045097;28;20045;-64
2022/01/10 01:24:05;;;;;;;6.18;4.70;;;22.50;26.80;;;;;;5045268;28;20049;-64
2022/01/10 01:26:35;;;;;;;5.10;4.40;;;22.50;26.80;;;;;;5044478;28;20052;-63
2022/01/10 01:29:07;;;;;;;5.22;4.57;;;22.50;26.80;;;;;;5043628;28;20053;-63
2022/01/10 01:31:35;;;;;;;5.85;4.60;;;22.50;26.80;;;;;;5044897;28;20395;-63
2022/01/10 01:34:03;;;;;;;4.82;4.30;;;22.50;26.80;;;;;;5045044;28;20056;-63
2022/01/10 01:36:32;;;;;;;5.20;4.70;;;22.50;26.80;;;;;;5044494;28;20132;-63
2022/01/10 01:39:00;;;;;;;4.93;4.43;;;22.50;26.80;;;;;;5044696;28;20481;-64
2022/01/10 01:41:41;;;;;;;4.95;4.32;;;22.50;26.80;;;;;;5044772;28;20084;-64
2022/01/10 01:44:08;;;;;;;5.25;4.43;;;22.60;26.90;;;;;;5045538;28;20045;-64
2022/01/10 01:46:38;;;;;;;5.68;4.78;;;22.50;26.80;;;;;;5047771;28;20076;-63
2022/01/10 01:49:06;;;;;;;5.13;4.57;;;22.50;26.90;;;;;;5047659;28;20049;-64
2022/01/10 01:51:34;;;;;;;5.60;4.85;;;22.50;26.90;;;;;;5048022;28;20053;-63
2022/01/10 01:54:02;;;;;;;6.72;4.85;;;22.50;26.90;;;;;;5048131;28;20048;-64
2022/01/10 01:56:29;;;;;;;5.80;4.60;;;22.50;27.30;;;;;;5048221;28;20045;-64
2022/01/10 01:58:57;;;;;;;6.50;4.57;;;22.50;26.90;;;;;;5047973;28;20111;-64
2022/01/10 02:01:25;;;;;;;5.53;4.65;;;22.50;26.90;;;;;;5048030;28;20051;-64
2022/01/10 02:03:53;;;;;;;4.65;4.22;;;22.50;26.90;;;;;;5048168;28;20522;-63
2022/01/10 02:06:20;;;;;;;4.60;4.07;;;22.50;26.90;;;;;;5047904;28;20449;-64
2022/01/10 02:08:48;;;;;;;4.75;4.13;;;22.50;26.90;;;;;;5048339;28;20050;-63
2022/01/10 02:11:15;;;;;;;4.80;4.20;;;22.50;26.90;;;;;;5047936;28;20049;-64
2022/01/10 02:13:44;;;;;;;4.38;3.97;;;22.50;27.30;;;;;;5047738;28;20517;-63
2022/01/10 02:16:16;;;;;;;5.25;4.40;;;22.50;26.90;;;;;;5046641;28;20091;-64
2022/01/10 02:18:44;;;;;;;4.35;3.90;;;22.50;26.90;;;;;;5047491;28;20227;-63
2022/01/10 02:21:13;;;;;;;4.32;3.92;;;22.50;26.90;;;;;;5047911;28;20044;-63
2022/01/10 02:23:40;;;;;;;4.57;4.10;;;22.50;26.90;;;;;;5047437;28;20153;-63
2022/01/10 02:26:08;;;;;;;4.68;4.15;;;22.50;26.90;;;;;;5047222;28;20052;-64
2022/01/10 02:28:35;;;;;;;4.07;3.75;;;22.50;26.90;;;;;;5047504;28;20128;-63
2022/01/10 02:31:02;;;;;;;4.97;4.47;;;22.50;26.90;;;;;;5047113;28;20215;-63
2022/01/10 02:33:31;;;;;;;4.35;3.88;;;22.50;26.90;;;;;;5047537;28;20407;-64
2022/01/10 02:36:21;;;;;;;4.65;3.95;;;22.50;26.90;;;;;;5047704;28;20048;-63
2022/01/10 02:38:49;;;;;;;4.38;3.95;;;22.50;26.90;;;;;;5047275;28;20456;-63
2022/01/10 02:41:23;;;;;;;4.40;3.95;;;22.50;27.00;;;;;;5046934;28;20367;-64
2022/01/10 02:43:52;;;;;;;4.63;4.13;;;22.40;26.90;;;;;;5046960;28;20410;-63
2022/01/10 02:46:20;;;;;;;4.28;3.67;;;22.50;27.00;;;;;;5047534;28;20045;-63
2022/01/10 02:48:48;;;;;;;5.05;4.28;;;22.40;26.90;;;;;;5047010;28;20045;-63
2022/01/10 02:51:15;;;;;;;4.30;3.85;;;22.40;27.00;;;;;;5047109;28;20099;-64
2022/01/10 02:53:42;;;;;;;4.35;3.95;;;22.40;27.00;;;;;;5047046;28;20493;-64
2022/01/10 02:56:10;;;;;;;4.20;3.80;;;22.40;27.00;;;;;;5045838;28;20040;-63
2022/01/10 02:58:38;;;;;;;4.53;3.92;;;22.40;27.00;;;;;;5045836;28;20136;-64
2022/01/10 03:01:05;;;;;;;4.00;3.60;;;22.40;27.00;;;;;;5046593;28;20049;-64
2022/01/10 03:03:33;;;;;;;4.07;3.65;;;22.40;27.00;;;;;;5046600;28;20053;-63
2022/01/10 03:06:01;;;;;;;4.30;3.45;;;22.40;27.00;;;;;;5046530;28;20041;-63
2022/01/10 03:08:29;;;;;;;4.20;3.80;;;22.40;27.00;;;;;;5046776;28;20045;-64
2022/01/10 03:10:56;;;;;;;4.07;3.67;;;22.40;27.00;;;;;;5047023;28;20129;-63
2022/01/10 03:13:23;;;;;;;4.45;4.05;;;22.40;27.00;;;;;;5046885;28;20048;-63
2022/01/10 03:15:50;;;;;;;3.63;3.33;;;22.40;27.00;;;;;;5046755;28;20511;-63
2022/01/10 03:18:18;;;;;;;4.55;3.80;;;22.40;27.00;;;;;;5046214;28;20048;-63
2022/01/10 03:20:45;;;;;;;4.63;4.15;;;22.40;27.10;;;;;;5046620;28;20045;-63
2022/01/10 03:23:13;;;;;;;3.95;3.65;;;22.40;27.00;;;;;;5046242;28;20132;-63
2022/01/10 03:25:40;;;;;;;4.78;3.90;;;22.40;27.10;;;;;;5046630;28;20048;-63
2022/01/10 03:28:10;;;;;;;4.28;3.85;;;22.40;27.10;;;;;;5046083;28;20049;-66
2022/01/10 03:30:37;;;;;;;4.75;3.83;;;22.40;27.10;;;;;;5046127;28;20128;-64
2022/01/10 03:33:04;;;;;;;3.83;3.50;;;22.40;27.10;;;;;;5046064;28;20099;-63
2022/01/10 03:35:32;;;;;;;3.92;3.53;;;22.30;27.00;;;;;;5046447;28;20064;-64
2022/01/10 03:37:59;;;;;;;4.07;3.45;;;22.30;27.10;;;;;;5046494;28;20098;-63
2022/01/10 03:40:26;;;;;;;4.47;4.07;;;22.30;27.10;;;;;;5046652;28;20123;-63
2022/01/10 03:42:53;;;;;;;4.28;3.88;;;22.30;27.10;;;;;;5046242;28;20390;-64
2022/01/10 03:45:20;;;;;;;4.35;3.50;;;22.30;27.10;;;;;;5044942;28;20040;-64
2022/01/10 03:47:48;;;;;;;3.60;3.30;;;22.30;27.10;;;;;;5044526;28;20552;-63
2022/01/10 03:50:15;;;;;;;3.65;3.35;;;22.30;27.10;;;;;;5046283;28;20068;-64
2022/01/10 03:52:42;;;;;;;4.45;3.53;;;22.30;27.10;;;;;;5045468;28;20081;-63
2022/01/10 03:55:10;;;;;;;5.40;4.43;;;22.30;27.10;;;;;;5044610;28;20080;-63
2022/01/10 03:57:37;;;;;;;3.63;3.30;;;22.30;27.10;;;;;;5045970;28;20068;-64
2022/01/10 04:00:06;;;;;;;3.95;3.58;;;22.30;27.10;;;;;;5044707;28;20375;-63
2022/01/10 04:02:35;;;;;;;4.25;3.85;;;22.30;27.10;;;;;;5045813;28;20073;-63
2022/01/10 04:05:03;;;;;;;4.75;3.70;;;22.30;27.10;;;;;;5045884;28;20103;-63
2022/01/10 04:07:30;;;;;;;4.25;3.78;;;22.30;27.10;;;;;;5044648;28;20049;-63
2022/01/10 04:09:57;;;;;;;3.95;3.47;;;22.40;27.20;;;;;;5045418;28;20098;-63
2022/01/10 04:12:25;;;;;;;3.67;3.33;;;22.30;27.10;;;;;;5045486;28;20052;-63
2022/01/10 04:14:52;;;;;;;3.17;2.88;;;22.30;27.10;;;;;;5045875;28;20041;-63
2022/01/10 04:17:19;;;;;;;3.65;3.33;;;22.30;27.10;;;;;;5045445;28;20111;-63
2022/01/10 04:19:46;;;;;;;4.03;3.17;;;22.30;27.10;;;;;;5045287;28;20045;-64
2022/01/10 04:22:13;;;;;;;3.35;3.05;;;22.30;27.10;;;;;;5045560;28;20270;-63
2022/01/10 04:24:40;;;;;;;3.95;3.53;;;22.30;27.20;;;;;;5045126;28;20081;-63
2022/01/10 04:27:08;;;;;;;4.30;3.50;;;22.30;27.10;;;;;;5045978;28;20045;-63
2022/01/10 04:29:35;;;;;;;3.50;3.20;;;22.30;27.20;;;;;;5045185;28;20053;-63
2022/01/10 04:32:03;;;;;;;3.65;3.20;;;22.30;27.20;;;;;;5045722;28;20072;-63
2022/01/10 04:34:31;;;;;;;2.88;2.63;;;22.30;27.20;;;;;;5045658;28;20049;-64
2022/01/10 04:36:58;;;;;;;3.83;3.47;;;22.30;27.20;;;;;;5045931;28;20426;-64
2022/01/10 04:39:25;;;;;;;5.45;3.63;;;22.30;27.20;;;;;;5049869;28;20056;-63
2022/01/10 04:41:52;;;;;;;3.28;2.97;;;22.30;27.20;;;;;;5044153;28;20402;-63
2022/01/10 04:44:20;;;;;;;3.47;3.17;;;22.30;27.20;;;;;;5045497;28;20064;-64
2022/01/10 04:46:47;;;;;;;4.47;3.85;;;22.30;27.20;;;;;;5045421;28;20298;-63
2022/01/10 04:49:23;;;;;;;3.53;3.20;;;22.30;27.20;;;;;;5041147;28;20045;-64
2022/01/10 04:51:51;;;;;;;3.85;3.45;;;22.20;27.20;;;;;;5025235;28;20103;-64
2022/01/10 04:54:19;;;;;;;3.53;3.22;;;22.30;27.20;;;;;;5024328;28;20432;-63
2022/01/10 04:56:46;;;;;;;3.35;3.00;;;22.20;27.20;;;;;;5025528;28;20478;-64
2022/01/10 04:59:13;;;;;;;3.70;3.30;;;22.20;27.20;;;;;;5040076;28;20061;-63
2022/01/10 05:01:41;;;;;;;3.25;2.92;;;22.20;27.20;;;;;;5025224;28;20115;-63
2022/01/10 05:04:10;;;;;;;3.03;2.83;;;22.20;27.20;;;;;;5024998;28;20041;-64
2022/01/10 05:06:37;;;;;;;3.10;2.83;;;22.20;27.20;;;;;;5027756;28;20528;-64
2022/01/10 05:09:04;;;;;;;4.38;3.55;;;22.20;27.30;;;;;;5044837;28;20057;-64
2022/01/10 05:11:33;;;;;;;3.17;2.85;;;22.20;27.30;;;;;;5043419;28;20037;-64
2022/01/10 05:14:00;;;;;;;5.10;3.83;;;22.20;27.30;;;;;;5045144;28;20049;-64
2022/01/10 05:16:27;;;;;;;3.05;2.75;;;22.20;27.30;;;;;;5045165;28;20053;-64
2022/01/10 05:18:55;;;;;;;3.00;2.70;;;22.20;27.30;;;;;;5046337;28;20081;-64
2022/01/10 05:21:22;;;;;;;3.45;3.15;;;22.20;27.30;;;;;;5045860;28;20130;-64
2022/01/10 05:23:49;;;;;;;3.80;3.05;;;22.20;27.30;;;;;;5050599;28;20041;-64
2022/01/10 05:26:16;;;;;;;4.70;3.33;;;22.20;27.30;;;;;;5047538;28;20172;-64
2022/01/10 05:28:43;;;;;;;4.30;2.90;;;22.20;27.30;;;;;;5048484;28;20060;-64
2022/01/10 05:31:10;;;;;;;3.03;2.75;;;22.20;27.40;;;;;;5048270;28;20045;-64
2022/01/10 05:33:38;;;;;;;3.85;3.20;;;22.20;27.30;;;;;;5048519;28;20454;-64
2022/01/10 05:36:05;;;;;;;3.08;2.75;;;22.20;27.30;;;;;;5047007;28;20493;-63
2022/01/10 05:38:32;;;;;;;4.57;3.00;;;22.20;27.30;;;;;;5046967;28;20041;-64
2022/01/10 05:40:59;;;;;;;3.05;2.75;;;22.20;27.30;;;;;;5036712;28;20332;-64
2022/01/10 05:43:27;;;;;;;3.60;3.30;;;22.20;27.40;;;;;;5038555;28;20037;-64
2022/01/10 05:45:54;;;;;;;4.20;3.20;;;22.20;27.40;;;;;;5048556;28;20308;-63
2022/01/10 05:48:25;;;;;;;3.55;3.15;;;22.20;27.30;;;;;;5047429;28;20298;-64
2022/01/10 05:50:53;;;;;;;3.55;3.22;;;22.20;27.30;;;;;;5042997;28;20136;-64
2022/01/10 05:53:21;;;;;;;3.20;2.88;;;22.20;27.30;;;;;;5039966;28;20068;-64
2022/01/10 05:55:49;;;;;;;3.78;2.92;;;22.20;27.80;;;;;;5047686;28;20110;-64
2022/01/10 05:58:16;;;;;;;3.25;2.70;;;22.20;27.30;;;;;;5043607;28;20537;-63
2022/01/10 06:00:44;;;;;;;3.15;2.85;;;22.20;27.30;;;;;;5045845;28;20053;-64
2022/01/10 06:03:11;;;;;;;3.40;3.10;;;22.20;27.40;;;;;;5044476;28;20077;-64
2022/01/10 06:05:39;;;;;;;3.70;3.40;;;22.20;27.30;;;;;;5046006;28;20490;-63
2022/01/10 06:08:08;;;;;;;3.80;3.38;;;22.20;27.30;;;;;;5037656;28;20045;-63
2022/01/10 06:10:36;;;;;;;3.83;3.40;;;22.10;27.30;;;;;;5036858;28;20053;-63
2022/01/10 06:13:04;;;;;;;3.70;3.28;;;22.20;27.30;;;;;;5047629;28;20079;-63
2022/01/10 06:15:32;;;;;;;3.75;3.28;;;22.10;27.20;;;;;;5049457;28;20045;-63
2022/01/10 06:17:59;;;;;;;3.38;3.00;;;22.10;27.20;;;;;;5047682;28;20076;-63
2022/01/10 06:20:27;;;;;;;3.65;3.22;;;22.10;27.20;;;;;;5045187;28;20045;-64
2022/01/10 06:22:54;;;;;;;3.80;3.42;;;22.10;27.20;;;;;;5047698;28;20086;-63
2022/01/10 06:28:53;;;;;;;3.20;2.90;;;22.10;27.30;;;;;;5044436;28;20084;-65
2022/01/10 06:31:21;;;;;;;3.83;3.13;;;22.20;27.30;;;;;;5043013;28;20044;-65
2022/01/10 06:33:48;;;;;;;3.47;3.17;;;22.20;27.20;;;;;;5040322;28;20506;-65
2022/01/10 06:36:15;;;;;;;3.13;2.88;;;22.20;27.20;;;;;;5042181;28;20135;-63
2022/01/10 06:38:43;;;;;;;3.67;3.13;;;22.30;27.20;;;;;;5042591;28;20058;-66
2022/01/10 06:41:10;;;;;;;3.22;2.92;;;22.30;27.20;;;;;;5038706;28;20045;-63
2022/01/10 06:43:39;;;;;;;3.70;3.08;;;22.40;27.20;;;;;;5042289;28;20053;-62
2022/01/10 06:46:06;;;;;;;4.88;3.75;;;22.40;27.20;;;;;;5037452;28;20057;-68
2022/01/10 06:48:34;;;;;;;3.40;3.00;;;22.50;27.70;;;;;;5037359;28;20051;-67
2022/01/10 06:51:01;;;;;;;3.05;2.78;;;22.60;28.20;;;;;;5042674;28;20111;-69
2022/01/10 06:53:29;;;;;;;4.22;3.25;;;22.70;28.30;;;;;;5046254;28;20049;-70
2022/01/10 06:55:56;;;;;;;3.78;2.97;;;22.70;28.00;;;;;;5038859;28;20098;-66
2022/01/10 06:58:23;;;;;;;4.68;3.33;;;22.80;28.30;;;;;;5044986;28;20490;-65
2022/01/10 07:00:50;;;;;;;3.95;3.53;;;22.80;28.30;;;;;;5039461;28;20056;-66
2022/01/10 07:06:59;;;;;;;3.88;3.30;;;22.90;28.30;;;;;;5054431;28;20493;-66
2022/01/10 07:09:26;;;;;;;3.75;2.97;;;23.00;28.40;;;;;;5047880;28;20056;-66
2022/01/10 07:11:54;;;;;;;3.42;3.13;;;23.10;28.30;;;;;;5046692;28;20513;-65
2022/01/10 07:14:21;;;;;;;4.05;3.38;;;23.20;28.20;;;;;;5031234;28;20102;-65
2022/01/10 07:16:50;;;;;;;3.17;2.88;;;23.20;27.80;;;;;;5025652;28;20045;-64
2022/01/10 07:19:18;;;;;;;5.95;3.70;;;23.30;27.60;;;;;;5040771;28;20044;-65
2022/01/10 07:21:47;;;;;;;3.85;3.50;;;23.30;27.40;;;;;;5035532;28;21681;-65
2022/01/10 07:24:15;;;;;;;3.93;3.40;;;23.40;27.40;;;;;;5037672;28;21509;-64
2022/01/10 07:26:42;;;;;;;3.92;3.47;;;23.50;27.30;;;;;;5041745;28;20293;-65
2022/01/10 07:29:11;;;;;;;4.65;3.70;;;23.50;27.30;;;;;;5041947;28;20076;-64
2022/01/10 07:31:42;;;;;;;3.83;3.40;;;23.60;27.20;;;;;;5038461;28;20107;-63
2022/01/10 07:34:13;;;;;;;4.85;4.28;;;23.60;27.10;;;;;;5041175;28;20138;-63
2022/01/10 07:36:40;;;;;;;3.53;3.15;;;23.70;27.10;;;;;;5042322;28;20101;-63
2022/01/10 07:39:08;;;;;;;4.60;3.67;;;23.80;27.10;;;;;;5047960;28;20045;-62
2022/01/10 07:41:35;;;;;;;7.30;3.92;;;23.80;26.90;;;;;;5040226;28;20471;-62
2022/01/10 07:44:03;;;;;;;4.70;4.22;;;23.90;26.90;;;;;;5040271;28;20041;-63
2022/01/10 07:46:30;;;;;;;4.57;3.50;;;23.90;26.90;;;;;;5041188;28;20050;-67
2022/01/10 07:48:57;;;;;;;4.43;3.45;;;24.00;27.00;;;;;;5041592;28;20134;-64
2022/01/10 07:51:26;;;;;;;4.35;3.50;;;24.00;27.30;;;;;;5039613;28;20060;-65
2022/01/10 07:53:54;;;;;;;3.08;2.85;;;24.10;27.40;;;;;;5030910;28;20049;-70
2022/01/10 07:56:21;;;;;;;4.35;3.45;;;24.10;27.10;;;;;;5035997;28;20094;-66
2022/01/10 07:58:51;;;;;;;4.00;3.60;;;24.20;27.00;;;;;;5045237;28;20178;-69
2022/01/10 08:01:19;;;;;;;4.50;3.50;;;24.30;26.90;;;;;;5047124;28;20056;-69
2022/01/10 08:03:50;;;;;;;4.43;3.95;;;24.30;27.10;;;;;;5048493;28;20052;-68
2022/01/10 08:06:19;;;;;;;5.32;3.35;;;24.40;27.70;;;;;;5048056;28;20501;-66
2022/01/10 08:08:46;;;;;;;3.67;3.35;;;24.50;28.00;;;;;;5047025;28;20049;-66
2022/01/10 08:11:14;;;;;;;3.70;3.40;;;24.50;27.70;;;;;;5048945;28;20114;-65
2022/01/10 08:13:43;;;;;;;4.40;3.47;;;24.50;28.00;;;;;;5049616;28;20045;-66
2022/01/10 08:16:10;;;;;;;5.70;4.05;;;24.60;28.00;;;;;;5047889;28;20049;-68
2022/01/10 08:18:38;;;;;;;3.60;3.30;;;24.60;28.10;;;;;;5047140;28;20052;-64
2022/01/10 08:21:06;;;;;;;4.55;3.45;;;24.70;27.80;;;;;;5048825;28;20053;-67
2022/01/10 08:23:34;;;;;;;6.40;3.75;;;24.70;27.30;;;;;;5047157;28;20056;-67
2022/01/10 08:26:03;;;;;;;5.82;3.40;;;24.80;27.20;;;;;;5045022;28;20045;-69
2022/01/10 08:28:36;;;;;;;4.47;3.95;;;24.90;27.00;;;;;;5046641;28;20118;-67
2022/01/10 08:31:03;;;;;;;5.13;3.63;;;24.90;26.80;;;;;;5049430;28;20053;-70
2022/01/10 08:33:31;;;;;;;5.10;3.95;;;25.00;26.70;;;;;;5048977;28;20479;-66
2022/01/10 08:35:58;;;;;;;4.35;3.95;;;25.00;26.60;;;;;;5048311;28;20056;-67
2022/01/10 08:38:26;;;;;;;4.10;3.70;;;25.10;26.60;;;;;;5047162;28;20048;-65
2022/01/10 08:40:53;;;;;;;3.95;3.55;;;25.10;26.50;;;;;;5048508;28;20107;-68
2022/01/10 08:43:20;;;;;;;4.22;3.45;;;25.20;26.50;;;;;;5048009;28;20053;-66
2022/01/10 08:45:48;;;;;;;6.05;3.47;;;25.20;26.50;;;;;;5048711;28;20081;-66
2022/01/10 08:48:15;;;;;;;4.05;3.30;;;25.30;26.80;;;;;;5057504;28;20213;-67
2022/01/10 08:50:42;;;;;;;5.88;3.63;;;25.40;26.60;;;;;;5068364;28;20082;-65
2022/01/10 08:53:10;;;;;;;4.38;3.03;;;25.40;26.50;;;;;;5069240;28;20105;-66
2022/01/10 08:55:37;;;;;;;4.25;3.42;;;25.50;26.50;;;;;;5071881;28;20045;-63
2022/01/10 08:58:05;;;;;;;3.50;3.17;;;25.50;26.40;;;;;;5070961;28;20048;-66
2022/01/10 09:00:32;;;;;;;4.15;3.75;;;25.60;26.40;;;;;;5043894;28;20544;-67
2022/01/10 09:03:01;;;;;;;4.50;3.38;;;25.60;26.40;;;;;;5047329;28;20099;-67
2022/01/10 09:08:47;;;;;;;3.70;3.40;;;25.70;26.50;;;;;;5049744;28;20110;-68
2022/01/10 09:11:15;;;;;;;5.13;3.40;;;25.70;26.40;;;;;;5048346;28;20114;-68
2022/01/10 09:13:42;;;;;;;3.40;3.10;;;25.80;26.30;;;;;;5050223;28;20146;-65
2022/01/10 09:16:11;;;;;;;4.80;3.45;;;25.80;26.50;;;;;;5050261;28;20045;-69
2022/01/10 09:18:39;;;;;;;4.65;3.47;;;25.90;26.90;;;;;;5053121;28;20049;-71
2022/01/10 09:21:07;;;;;;;5.30;3.30;;;25.90;27.20;;;;;;5054652;28;20053;-70
2022/01/10 09:23:35;;;;;;;4.78;3.85;;;26.00;27.30;;;;;;5048081;28;20081;-68
2022/01/10 09:26:02;;;;;;;3.53;3.15;;;26.00;27.30;;;;;;5040614;28;20060;-69
2022/01/10 09:28:29;;;;;;;4.13;3.40;;;26.00;27.20;;;;;;5035615;28;20451;-69
2022/01/10 09:30:57;;;;;;;5.38;4.22;;;26.10;27.20;;;;;;5038169;28;20457;-71
2022/01/10 09:33:28;;;;;;;4.88;3.47;;;26.10;27.10;;;;;;5041267;28;20049;-65
2022/01/10 09:35:55;;;;;;;4.13;3.65;;;26.10;27.00;;;;;;5042743;28;20053;-67
2022/01/10 09:38:22;;;;;;;4.75;3.83;;;26.20;26.80;;;;;;5058277;28;20098;-66
2022/01/10 09:40:49;;;;;;;10.90;3.95;;;26.20;26.90;;;;;;5047072;28;20053;-67
2022/01/10 09:43:18;;;;;;;4.97;3.83;;;26.20;27.10;;;;;;5045585;28;20049;-70
2022/01/10 09:45:46;;;;;;;4.90;3.63;;;26.30;27.10;;;;;;5045934;28;20660;-64
2022/01/10 09:48:14;;;;;;;5.30;3.38;;;26.30;27.10;;;;;;5049224;28;20045;-67
2022/01/10 09:50:42;;;;;;;3.22;2.92;;;26.40;27.20;;;;;;5045666;28;20053;-70
2022/01/10 09:56:37;;;;;;;3.90;3.50;;;26.40;26.80;;;;;;5047560;28;20125;-70
2022/01/10 09:59:05;;;;;;;3.78;3.35;;;26.40;26.80;;;;;;5050532;28;20406;-69
2022/01/10 10:01:34;;;;;;;5.28;3.35;;;26.40;26.70;;;;;;5049863;28;20041;-68
2022/01/10 10:04:02;;;;;;;3.83;3.20;;;26.40;26.80;;;;;;5049091;28;20045;-66
2022/01/10 10:06:32;;;;;;;5.10;3.63;;;26.50;26.80;;;;;;5042487;28;20053;-63
2022/01/10 10:09:04;;;;;;;4.30;3.60;;;26.50;26.60;;;;;;5048232;28;20059;-72
2022/01/10 10:11:51;;;;;;;3.97;3.58;;;26.50;26.80;;;;;;5049788;28;20080;-68
2022/01/10 10:14:21;;;;;;;3.83;3.35;;;26.50;26.80;;;;;;5047009;28;20090;-73
2022/01/10 10:16:51;;;;;;;5.55;3.75;;;26.60;26.90;;;;;;5041984;28;20061;-70
2022/01/10 10:19:29;;;;;;;4.88;3.88;;;26.60;27.00;;;;;;5050772;28;20052;-70
2022/01/10 10:21:58;;;;;;;4.18;3.70;;;26.60;26.90;;;;;;5053956;28;20056;-71
2022/01/10 10:24:27;;;;;;;8.15;3.83;;;26.60;26.80;;;;;;5052805;28;20175;-70
2022/01/10 10:26:55;;;;;;;4.20;3.75;;;26.60;26.80;;;;;;5043346;28;20052;-68
2022/01/10 10:29:27;;;;;;;5.25;4.05;;;26.70;26.70;;;;;;5051716;28;20563;-72
2022/01/10 10:31:56;;;;;;;3.80;3.38;;;26.70;26.80;;;;;;5052450;28;20118;-69
2022/01/10 10:34:30;;;;;;;4.07;3.40;;;26.70;26.70;;;;;;5052675;28;20045;-73
2022/01/10 10:37:06;;;;;;;3.75;3.35;;;26.70;26.60;;;;;;5047010;28;20065;-66
2022/01/10 10:39:37;;;;;;;4.07;3.30;;;26.80;26.80;;;;;;5070905;28;20094;-68
2022/01/10 10:45:48;;;;;;;3.60;3.30;;;26.80;26.70;;;;;;5047066;28;20055;-67
2022/01/10 10:48:17;;;;;;;4.22;3.80;;;26.80;27.20;;;;;;5045428;28;20052;-71
2022/01/10 10:50:46;;;;;;;4.32;3.53;;;26.80;26.70;;;;;;5051504;28;20388;-65
2022/01/10 10:53:14;;;;;;;4.90;3.53;;;26.80;26.70;;;;;;5050496;28;20044;-68
2022/01/10 10:55:44;;;;;;;3.88;3.47;;;26.80;26.70;;;;;;5049287;28;20484;-66
2022/01/10 10:58:13;;;;;;;5.88;4.15;;;26.80;26.60;;;;;;5058871;28;20068;-72
2022/01/10 11:00:40;;;;;;;5.78;3.75;;;26.90;26.70;;;;;;5070428;28;20056;-71
2022/01/10 11:03:10;;;;;;;7.03;4.80;;;26.90;26.50;;;;;;5069431;28;20482;-71
2022/01/10 11:05:38;;;;;;;5.13;3.53;;;26.80;26.40;;;;;;5066742;28;20056;-72
2022/01/10 11:08:06;;;;;;;5.82;4.25;;;26.80;26.60;;;;;;5037231;28;20053;-73
2022/01/10 11:10:34;;;;;;;7.63;4.30;;;26.80;26.50;;;;;;5030741;28;20046;-71
2022/01/10 11:13:02;;;;;;;5.65;4.53;;;26.70;26.50;;;;;;5030290;28;20049;-71
2022/01/10 11:15:31;;;;;;;6.05;4.65;;;26.60;26.30;;;;;;5029872;28;20057;-71
2022/01/10 11:18:04;;;;;;;5.93;3.93;;;26.60;26.30;;;;;;5036834;28;20095;-71
2022/01/10 11:20:47;;;;;;;6.18;4.45;;;26.50;26.20;;;;;;5029622;28;20053;-71
2022/01/10 11:23:37;;;;;;;9.98;7.55;;;26.40;26.40;;;;;;5029697;28;20101;-70
2022/01/10 11:26:07;;;;;;;6.30;4.78;;;26.30;25.50;;;;;;5033012;28;20049;-73
2022/01/10 11:28:38;;;;;;;;;;;26.20;26.00;;;;;;5048224;28;20045;-71
2022/01/10 11:31:07;;;;;;;7.15;4.88;;;26.10;25.70;;;;;;5049966;28;19996;-71
2022/01/10 11:33:36;;;;;;;6.40;4.55;;;26.00;26.10;;;;;;5050064;28;20045;-70
2022/01/10 11:36:08;;;;;;;7.18;5.00;;;26.00;26.20;;;;;;5048905;28;20056;-72
2022/01/10 11:38:53;;;;;;;6.47;4.85;;;26.00;26.30;;;;;;5034247;28;20045;-72
2022/01/10 11:41:24;;;;;;;6.20;4.82;;;25.90;26.30;;;;;;5028754;28;20064;-69
2022/01/10 11:44:07;;;;;;;6.40;4.85;;;25.90;26.40;;;;;;5029895;28;20053;-70
2022/01/10 11:46:46;;;;;;;5.25;4.75;;;25.90;26.50;;;;;;5028908;28;20406;-70
2022/01/10 11:49:20;;;;;;;6.50;5.13;;;25.90;26.70;;;;;;5046822;28;20040;-68
2022/01/10 11:52:02;;;;;;;5.43;4.55;;;25.90;26.70;;;;;;5047793;28;20049;-73
2022/01/10 11:54:39;;;;;;;6.10;4.80;;;25.80;26.70;;;;;;5049087;28;20045;-73
2022/01/10 11:57:19;;;;;;;7.97;5.65;;;25.80;26.80;;;;;;5049009;28;20053;-74
2022/01/10 11:59:52;;;;;;;6.47;4.85;;;25.80;26.80;;;;;;5044577;28;20418;-73
2022/01/10 12:02:23;;;;;;;8.38;5.78;;;25.70;26.80;;;;;;5041607;28;20098;-72
2022/01/10 12:05:02;;;;;;;5.47;4.93;;;25.70;26.80;;;;;;5040917;28;20095;-74
2022/01/10 12:07:45;;;;;;;5.80;4.43;;;25.70;26.80;;;;;;5037884;28;20075;-70
2022/01/10 12:10:26;;;;;;;7.55;4.82;;;25.70;26.80;;;;;;5040634;28;20053;-74
2022/01/10 12:13:05;;;;;;;5.00;4.55;;;25.70;26.80;;;;;;5035616;28;20115;-73
2022/01/10 12:15:33;;;;;;;4.93;4.35;;;25.70;26.80;;;;;;5047585;28;20448;-71
2022/01/10 12:21:13;;;;;;;5.90;4.82;;;25.70;26.80;;;;;;5036340;28;20040;-69
2022/01/10 12:23:44;;;;;;;5.63;4.68;;;25.70;26.90;;;;;;5043386;28;20049;-70
2022/01/10 12:26:12;;;;;;;4.55;3.70;;;25.60;26.90;;;;;;5044643;28;20045;-74
2022/01/10 12:28:39;;;;;;;6.00;4.78;;;25.60;27.00;;;;;;5044487;28;20047;-67
2022/01/10 12:31:07;;;;;;;5.82;5.20;;;25.60;27.00;;;;;;5044601;28;20053;-72
2022/01/10 12:33:34;;;;;;;6.53;4.95;;;25.60;27.20;;;;;;5045040;28;20076;-69
2022/01/10 12:36:02;;;;;;;8.88;5.63;;;25.60;27.30;;;;;;5047334;28;20552;-65
2022/01/10 12:38:29;;;;;;;7.80;4.82;;;25.60;27.40;;;;;;5048168;28;20197;-77
2022/01/10 12:40:56;;;;;;;7.78;6.38;;;25.60;27.40;;;;;;5045132;28;20119;-73
2022/01/10 12:43:24;;;;;;;6.25;4.85;;;25.50;27.40;;;;;;5045878;28;20096;-72
2022/01/10 12:45:51;;;;;;;6.45;5.10;;;25.60;27.60;;;;;;5047537;28;20095;-72
2022/01/10 12:48:23;;;;;;;6.45;5.07;;;25.60;27.70;;;;;;5047735;28;20049;-75
2022/01/10 12:50:54;;;;;;;12.55;5.47;;;25.50;27.70;;;;;;5045350;28;20053;-69
2022/01/10 12:53:22;;;;;;;5.82;4.28;;;25.50;27.70;;;;;;5076410;28;20071;-69
2022/01/10 12:55:49;;;;;;;5.28;4.65;;;25.60;27.60;;;;;;5047986;28;20490;-70
2022/01/10 12:58:16;;;;;;;6.85;4.70;;;25.50;27.50;;;;;;5045958;28;20483;-72
2022/01/10 13:00:44;;;;;;;20.98;4.90;;;25.50;27.60;;;;;;5048870;28;20118;-73
2022/01/10 13:03:11;;;;;;;5.93;4.97;;;25.50;27.50;;;;;;5041290;28;20049;-71
2022/01/10 13:05:39;;;;;;;7.40;4.78;;;25.50;27.50;;;;;;5039762;28;20494;-71
2022/01/10 13:08:07;;;;;;;7.20;4.88;;;25.50;27.60;;;;;;5044474;28;20061;-72
2022/01/10 13:10:38;;;;;;;7.38;5.65;;;25.50;27.60;;;;;;5045794;28;20072;-67
2022/01/10 13:13:05;;;;;;;7.28;4.80;;;25.50;27.60;;;;;;5045220;28;20076;-73
2022/01/10 13:15:42;;;;;;;5.75;4.35;;;25.40;27.70;;;;;;5047049;28;20045;-72
2022/01/10 13:18:12;;;;;;;6.95;4.82;;;25.40;27.80;;;;;;5046252;28;20100;-69
2022/01/10 13:20:55;;;;;;;5.82;5.07;;;25.40;27.80;;;;;;5049383;28;20048;-71
2022/01/10 13:23:25;;;;;;;6.45;5.22;;;25.40;28.30;;;;;;5047629;28;20107;-69
2022/01/10 13:25:55;;;;;;;6.50;5.28;;;25.30;28.00;;;;;;5043348;28;20489;-68